createdAt,value
2018-07-23T03:51:23.892Z,99.99
2018-07-23T03:52:23.853Z,99.99
2018-07-23T03:53:23.840Z,99.99
2018-07-23T03:54:23.818Z,99.99
2018-07-23T03:55:23.799Z,99.99
2018-07-23T03:56:23.786Z,99.99
2018-07-23T03:57:23.783Z,99.99
2018-07-23T03:58:23.751Z,99.99
2018-07-23T03:59:23.735Z,99.99
2018-07-23T04:00:23.728Z,99.99
2018-07-23T04:01:23.716Z,99.99
2018-07-23T04:02:23.684Z,99.99
2018-07-23T04:03:23.708Z,99.99
2018-07-23T04:04:23.651Z,99.99
2018-07-23T04:05:23.638Z,99.99
2018-07-23T04:06:23.627Z,99.99
2018-07-23T04:07:23.609Z,99.99
2018-07-23T04:08:23.591Z,99.99
2018-07-23T04:09:23.574Z,99.99
2018-07-23T04:10:23.556Z,99.99
2018-07-23T04:11:23.546Z,99.99
2018-07-23T04:12:23.526Z,99.99
2018-07-23T04:13:23.523Z,99.99
2018-07-23T04:14:23.504Z,99.99
2018-07-23T04:15:23.488Z,99.99
2018-07-23T04:16:23.463Z,99.99
2018-07-23T04:17:23.465Z,99.99
2018-07-23T04:18:23.437Z,99.99
2018-07-23T04:19:23.424Z,99.99
2018-07-23T04:20:23.414Z,99.99
2018-07-23T04:21:23.389Z,99.99
2018-07-23T04:22:23.376Z,99.99
2018-07-23T04:23:23.373Z,99.99
2018-07-23T04:24:23.344Z,99.99
2018-07-23T04:25:23.325Z,99.99
2018-07-23T04:26:23.322Z,99.99
2018-07-23T04:27:23.300Z,99.99
2018-07-23T04:28:23.296Z,99.99
2018-07-23T04:29:23.270Z,99.99
2018-07-23T04:30:23.247Z,99.99
2018-07-23T04:31:23.238Z,99.99
2018-07-23T04:32:23.225Z,99.99
2018-07-23T04:33:23.205Z,99.99
2018-07-23T04:34:23.199Z,99.99
2018-07-23T04:35:23.173Z,99.99
2018-07-23T04:36:23.167Z,99.99
2018-07-23T04:37:23.151Z,99.99
2018-07-23T04:38:23.135Z,99.99
2018-07-23T04:39:23.116Z,99.99
2018-07-23T04:40:23.106Z,99.99
2018-07-23T04:41:23.097Z,99.99
2018-07-23T04:42:23.109Z,99.99
2018-07-23T04:43:23.063Z,99.99
2018-07-23T04:44:23.042Z,99.99
2018-07-23T04:45:23.031Z,99.99
2018-07-23T04:46:23.025Z,99.99
2018-07-23T04:47:23.002Z,99.99
2018-07-23T04:48:23.012Z,99.99
2018-07-23T04:49:23.046Z,99.99
2018-07-23T04:50:23.038Z,99.99
2018-07-23T04:51:22.966Z,99.99
2018-07-23T04:52:22.932Z,99.99
2018-07-23T04:53:22.970Z,99.99
2018-07-23T04:54:22.916Z,99.99
2018-07-23T04:55:22.897Z,99.99
2018-07-23T04:56:22.907Z,99.99
2018-07-23T04:57:22.945Z,99.99
2018-07-23T04:58:22.862Z,99.99
2018-07-23T04:59:22.859Z,99.99
2018-07-23T05:00:22.840Z,99.99
2018-07-23T05:01:22.862Z,99.99
2018-07-23T05:02:22.799Z,99.99
2018-07-23T05:03:22.783Z,99.99
2018-07-23T05:04:22.768Z,99.99
2018-07-23T05:05:22.773Z,99.99
2018-07-23T05:06:22.760Z,99.99
2018-07-23T05:07:22.731Z,99.99
2018-07-23T05:08:22.721Z,99.99
2018-07-23T05:09:22.703Z,99.99
2018-07-23T05:10:22.738Z,99.99
2018-07-23T05:11:22.677Z,99.99
2018-07-23T05:12:22.699Z,99.99
2018-07-23T05:13:22.661Z,99.99
2018-07-23T05:14:22.633Z,99.99
2018-07-23T05:15:22.635Z,99.99
2018-07-23T05:16:22.610Z,99.99
2018-07-23T05:17:22.589Z,99.99
2018-07-23T05:18:22.586Z,99.99
2018-07-23T05:19:22.613Z,99.99
2018-07-23T05:20:22.556Z,99.99
2018-07-23T05:21:22.538Z,99.99
2018-07-23T05:22:22.527Z,99.99
2018-07-23T05:23:22.514Z,99.99
2018-07-23T05:24:22.552Z,99.99
2018-07-23T05:25:22.491Z,99.99
2018-07-23T05:26:22.473Z,99.99
2018-07-23T05:27:22.472Z,99.99
2018-07-23T05:28:22.447Z,99.99
2018-07-23T05:29:22.437Z,99.99
2018-07-23T05:30:22.424Z,99.99
2018-07-23T05:31:22.411Z,99.99
2018-07-23T05:32:22.425Z,99.99
2018-07-23T05:33:22.383Z,99.99
2018-07-23T05:34:22.379Z,99.99
2018-07-23T05:35:22.361Z,99.99
2018-07-23T05:36:22.341Z,99.99
2018-07-23T05:37:22.341Z,99.99
2018-07-23T05:38:22.398Z,99.99
2018-07-23T05:39:22.314Z,99.99
2018-07-23T05:40:22.337Z,99.99
2018-07-23T05:41:22.290Z,99.99
2018-07-23T05:42:22.287Z,99.99
2018-07-23T05:43:22.261Z,99.99
2018-07-23T05:44:22.274Z,99.99
2018-07-23T05:45:22.236Z,99.99
2018-07-23T05:46:22.227Z,99.99
2018-07-23T05:47:22.214Z,99.99
2018-07-23T05:48:22.208Z,99.99
2018-07-23T05:49:22.192Z,99.99
2018-07-23T05:50:22.175Z,99.99
2018-07-23T05:51:22.163Z,99.99
2018-07-23T05:52:22.147Z,99.99
2018-07-23T05:53:22.146Z,99.99
2018-07-23T05:54:22.143Z,99.99
2018-07-23T05:55:22.118Z,99.99
2018-07-23T05:56:22.115Z,99.99
2018-07-23T05:57:22.089Z,99.99
2018-07-23T05:58:22.083Z,99.99
2018-07-23T05:59:22.067Z,99.99
2018-07-23T06:00:22.067Z,99.99
2018-07-23T06:01:22.050Z,99.99
2018-07-23T06:02:22.040Z,99.99
2018-07-23T06:03:22.021Z,99.99
2018-07-23T06:04:22.008Z,99.99
2018-07-23T06:05:22.000Z,99.99
2018-07-23T06:06:22.051Z,99.99
2018-07-23T06:07:21.986Z,99.99
2018-07-23T06:08:22.003Z,99.99
2018-07-23T06:09:21.963Z,99.99
2018-07-23T06:10:21.973Z,99.99
2018-07-23T06:11:21.934Z,99.99
2018-07-23T06:12:21.945Z,99.99
2018-07-23T06:13:21.977Z,99.99
2018-07-23T06:14:21.905Z,99.99
2018-07-23T06:15:21.896Z,99.99
2018-07-23T06:16:21.888Z,99.99
2018-07-23T06:17:21.875Z,99.99
2018-07-23T06:18:21.915Z,99.99
2018-07-23T06:19:21.892Z,99.99
2018-07-23T06:20:21.846Z,99.99
2018-07-23T06:21:21.820Z,99.99
2018-07-23T06:22:21.817Z,99.99
2018-07-23T06:23:21.804Z,99.99
2018-07-23T06:24:21.795Z,99.99
2018-07-23T06:25:21.825Z,99.99
2018-07-23T06:26:21.769Z,99.99
2018-07-23T06:27:21.753Z,99.99
2018-07-23T06:28:21.750Z,99.99
2018-07-23T06:29:21.734Z,99.99
2018-07-23T06:30:21.780Z,99.99
2018-07-23T06:31:21.712Z,99.99
2018-07-23T06:32:21.738Z,99.99
2018-07-23T06:33:21.699Z,99.99
2018-07-23T06:34:21.686Z,99.99
2018-07-23T06:35:21.670Z,99.99
2018-07-23T06:36:21.665Z,99.99
2018-07-23T06:37:21.653Z,99.99
2018-07-23T06:38:21.644Z,99.99
2018-07-23T06:39:21.640Z,99.99
2018-07-23T06:40:21.627Z,99.99
2018-07-23T06:41:21.615Z,99.99
2018-07-23T06:42:21.602Z,99.99
2018-07-23T06:43:21.596Z,99.99
2018-07-23T06:44:21.583Z,99.99
2018-07-23T06:45:21.570Z,99.99
2018-07-23T06:46:21.558Z,99.99
2018-07-23T06:47:21.567Z,99.99
2018-07-23T06:48:21.547Z,99.99
2018-07-23T06:49:21.538Z,99.99
2018-07-23T06:50:21.531Z,99.99
2018-07-23T06:51:21.513Z,99.99
2018-07-23T06:52:21.503Z,99.99
2018-07-23T06:53:21.528Z,99.99
2018-07-23T06:54:21.490Z,99.99
2018-07-23T06:55:21.480Z,99.99
2018-07-23T06:56:21.475Z,99.99
2018-07-23T06:57:21.501Z,99.99
2018-07-23T06:58:21.451Z,99.99
2018-07-23T06:59:21.442Z,99.99
2018-07-23T07:00:21.427Z,99.99
2018-07-23T07:01:21.428Z,99.99
2018-07-23T07:02:21.418Z,99.99
2018-07-23T07:03:21.490Z,99.99
2018-07-23T07:04:21.397Z,99.99
2018-07-23T07:05:21.398Z,99.99
2018-07-23T07:06:21.445Z,99.99
2018-07-23T07:07:21.409Z,99.99
2018-07-23T07:08:21.370Z,99.99
2018-07-23T07:09:21.364Z,99.99
2018-07-23T07:10:21.354Z,99.99
2018-07-23T07:11:21.338Z,99.99
2018-07-23T07:12:21.335Z,99.99
2018-07-23T07:13:21.353Z,99.99
2018-07-23T07:14:21.323Z,99.99
2018-07-23T07:15:21.317Z,99.99
2018-07-23T07:16:21.307Z,99.99
2018-07-23T07:17:21.326Z,99.99
2018-07-23T07:18:21.300Z,99.99
2018-07-23T07:19:21.281Z,99.99
2018-07-23T07:20:21.271Z,99.99
2018-07-23T07:21:21.261Z,99.99
2018-07-23T07:22:21.265Z,99.99
2018-07-23T07:23:21.252Z,99.99
2018-07-23T07:24:21.275Z,99.99
2018-07-23T07:25:21.290Z,99.99
2018-07-23T07:26:21.226Z,99.99
2018-07-23T07:27:21.229Z,99.99
2018-07-23T07:28:21.220Z,99.99
2018-07-23T07:29:21.211Z,99.99
2018-07-23T07:30:21.200Z,99.65
2018-07-23T07:31:21.198Z,99.94
2018-07-23T07:32:21.191Z,98.73
2018-07-23T07:33:21.178Z,99.99
2018-07-23T07:34:21.190Z,99.31
2018-07-23T07:35:21.163Z,97.33
2018-07-23T07:36:21.159Z,95.00
2018-07-23T07:37:21.176Z,97.33
2018-07-23T07:38:21.205Z,95.20
2018-07-23T07:39:21.140Z,97.81
2018-07-23T07:40:21.137Z,95.00
2018-07-23T07:41:21.127Z,93.40
2018-07-23T07:42:21.121Z,92.96
2018-07-23T07:43:21.117Z,91.61
2018-07-23T07:44:21.104Z,90.44
2018-07-23T07:45:21.105Z,92.38
2018-07-23T07:46:21.123Z,88.74
2018-07-23T07:47:21.086Z,88.35
2018-07-23T07:48:21.089Z,89.80
2018-07-23T07:49:21.076Z,88.39
2018-07-23T07:50:21.070Z,87.90
2018-07-23T07:51:21.063Z,88.00
2018-07-23T07:52:21.060Z,86.58
2018-07-23T07:53:21.054Z,85.41
2018-07-23T07:54:21.050Z,81.65
2018-07-23T07:55:21.038Z,80.68
2018-07-23T07:56:21.038Z,79.66
2018-07-23T07:57:21.032Z,80.46
2018-07-23T07:58:21.031Z,82.74
2018-07-23T07:59:21.025Z,82.79
2018-07-23T08:00:21.012Z,81.63
2018-07-23T08:01:21.019Z,83.24
2018-07-23T08:02:21.006Z,82.37
2018-07-23T08:03:20.999Z,84.01
2018-07-23T08:04:21.000Z,84.50
2018-07-23T08:05:20.990Z,81.30
2018-07-23T08:06:20.983Z,84.06
2018-07-23T08:07:20.983Z,85.61
2018-07-23T08:08:20.980Z,84.83
2018-07-23T08:09:20.974Z,81.73
2018-07-23T08:10:20.961Z,79.78
2018-07-23T08:11:20.961Z,79.14
2018-07-23T08:12:20.962Z,82.15
2018-07-23T08:13:20.961Z,83.17
2018-07-23T08:14:20.955Z,81.90
2018-07-23T08:15:20.949Z,80.58
2018-07-23T08:16:20.945Z,79.57
2018-07-23T08:17:20.936Z,77.74
2018-07-23T08:18:20.929Z,78.67
2018-07-23T08:19:20.932Z,81.01
2018-07-23T08:20:20.929Z,79.84
2018-07-23T08:21:20.919Z,78.09
2018-07-23T08:22:20.913Z,81.14
2018-07-23T08:23:20.916Z,78.03
2018-07-23T08:24:20.907Z,81.53
2018-07-23T08:25:20.900Z,82.15
2018-07-23T08:26:20.902Z,78.67
2018-07-23T08:27:20.898Z,81.51
2018-07-23T08:28:20.906Z,87.96
2018-07-23T08:29:20.882Z,86.54
2018-07-23T08:30:20.881Z,81.78
2018-07-23T08:31:20.875Z,82.31
2018-07-23T08:32:20.928Z,81.67
2018-07-23T08:33:20.865Z,79.72
2018-07-23T08:34:20.861Z,78.23
2018-07-23T08:35:20.861Z,81.09
2018-07-23T08:36:20.855Z,77.29
2018-07-23T08:37:20.848Z,80.35
2018-07-23T08:38:20.842Z,76.55
2018-07-23T08:39:20.842Z,78.99
2018-07-23T08:40:20.839Z,78.34
2018-07-23T08:41:20.832Z,76.42
2018-07-23T08:42:20.826Z,76.87
2018-07-23T08:43:20.820Z,77.45
2018-07-23T08:44:20.816Z,82.15
2018-07-23T08:45:20.823Z,80.30
2018-07-23T08:46:20.810Z,77.78
2018-07-23T08:47:20.804Z,78.40
2018-07-23T08:48:20.803Z,77.17
2018-07-23T08:49:20.803Z,75.81
2018-07-23T08:50:20.798Z,74.19
2018-07-23T08:51:20.836Z,73.54
2018-07-23T08:52:20.783Z,73.21
2018-07-23T08:53:20.775Z,77.48
2018-07-23T08:54:20.778Z,72.33
2018-07-23T08:55:20.771Z,71.85
2018-07-23T08:56:20.766Z,72.49
2018-07-23T08:57:20.803Z,73.50
2018-07-23T08:58:20.768Z,78.40
2018-07-23T08:59:20.759Z,73.05
2018-07-23T09:00:20.758Z,72.33
2018-07-23T09:01:20.749Z,72.59
2018-07-23T09:02:20.752Z,76.77
2018-07-23T09:03:20.738Z,74.57
2018-07-23T09:04:20.736Z,75.45
2018-07-23T09:05:20.730Z,76.84
2018-07-23T09:06:20.733Z,76.45
2018-07-23T09:07:20.721Z,76.17
2018-07-23T09:08:20.774Z,76.50
2018-07-23T09:09:20.721Z,72.99
2018-07-23T09:10:20.714Z,72.31
2018-07-23T09:11:20.715Z,72.83
2018-07-23T09:12:20.708Z,72.99
2018-07-23T09:13:20.706Z,70.85
2018-07-23T09:14:20.699Z,73.71
2018-07-23T09:15:20.692Z,71.56
2018-07-23T09:16:20.689Z,69.32
2018-07-23T09:17:20.700Z,68.26
2018-07-23T09:18:20.683Z,68.71
2018-07-23T09:19:20.676Z,70.13
2018-07-23T09:20:20.673Z,69.16
2018-07-23T09:21:20.667Z,74.74
2018-07-23T09:22:20.662Z,71.86
2018-07-23T09:23:20.666Z,67.18
2018-07-23T09:24:20.659Z,70.78
2018-07-23T09:25:20.652Z,70.59
2018-07-23T09:26:20.647Z,71.37
2018-07-23T09:27:20.649Z,75.30
2018-07-23T09:28:20.636Z,72.80
2018-07-23T09:29:20.633Z,72.71
2018-07-23T09:30:20.630Z,69.39
2018-07-23T09:31:20.626Z,66.53
2018-07-23T09:32:20.623Z,70.27
2018-07-23T09:33:20.617Z,70.04
2018-07-23T09:34:20.624Z,68.19
2018-07-23T09:35:20.614Z,68.77
2018-07-23T09:36:20.614Z,68.87
2018-07-23T09:37:20.605Z,70.82
2018-07-23T09:38:20.608Z,69.26
2018-07-23T09:39:20.607Z,69.65
2018-07-23T09:40:20.598Z,67.93
2018-07-23T09:41:20.598Z,67.44
2018-07-23T09:42:20.588Z,65.88
2018-07-23T09:43:20.591Z,68.80
2018-07-23T09:44:20.610Z,65.46
2018-07-23T09:45:20.579Z,68.97
2018-07-23T09:46:20.581Z,68.90
2018-07-23T09:47:20.599Z,65.88
2018-07-23T09:48:20.575Z,65.11
2018-07-23T09:49:20.565Z,67.25
2018-07-23T09:50:20.569Z,65.20
2018-07-23T09:51:20.569Z,64.29
2018-07-23T09:52:20.562Z,66.05
2018-07-23T09:53:20.553Z,66.34
2018-07-23T09:54:20.550Z,70.86
2018-07-23T09:55:20.549Z,68.23
2018-07-23T09:56:20.583Z,68.13
2018-07-23T09:57:20.550Z,66.96
2018-07-23T09:58:20.537Z,69.62
2018-07-23T09:59:20.542Z,64.26
2018-07-23T10:00:20.534Z,65.63
2018-07-23T10:01:20.530Z,64.06
2018-07-23T10:02:20.527Z,63.64
2018-07-23T10:03:20.535Z,66.34
2018-07-23T10:04:20.517Z,63.15
2018-07-23T10:05:20.514Z,64.29
2018-07-23T10:06:20.520Z,70.86
2018-07-23T10:07:20.517Z,72.61
2018-07-23T10:08:20.505Z,70.66
2018-07-23T10:09:20.508Z,65.30
2018-07-23T10:10:20.502Z,68.55
2018-07-23T10:11:20.506Z,63.84
2018-07-23T10:12:20.492Z,67.35
2018-07-23T10:13:20.498Z,67.64
2018-07-23T10:14:20.495Z,64.23
2018-07-23T10:15:20.495Z,63.22
2018-07-23T10:16:20.489Z,60.69
2018-07-23T10:17:20.476Z,63.15
2018-07-23T10:18:20.483Z,63.22
2018-07-23T10:19:20.482Z,63.51
2018-07-23T10:20:20.479Z,64.23
2018-07-23T10:21:20.469Z,65.20
2018-07-23T10:22:20.473Z,62.28
2018-07-23T10:23:20.473Z,62.90
2018-07-23T10:24:20.463Z,62.99
2018-07-23T10:25:20.466Z,65.14
2018-07-23T10:26:20.460Z,66.05
2018-07-23T10:27:20.457Z,65.69
2018-07-23T10:28:20.457Z,63.45
2018-07-23T10:29:20.459Z,64.03
2018-07-23T10:30:20.457Z,66.76
2018-07-23T10:31:20.450Z,61.92
2018-07-23T10:32:20.454Z,62.50
2018-07-23T10:33:20.453Z,67.18
2018-07-23T10:34:20.451Z,67.41
2018-07-23T10:35:20.452Z,63.38
2018-07-23T10:36:20.444Z,60.52
2018-07-23T10:37:20.438Z,62.66
2018-07-23T10:38:20.438Z,62.25
2018-07-23T10:39:20.442Z,63.71
2018-07-23T10:40:20.440Z,68.09
2018-07-23T10:41:20.434Z,60.39
2018-07-23T10:42:20.434Z,61.18
2018-07-23T10:43:20.440Z,61.21
2018-07-23T10:44:20.445Z,59.28
2018-07-23T10:45:20.436Z,58.12
2018-07-23T10:46:20.434Z,62.24
2018-07-23T10:47:20.432Z,57.14
2018-07-23T10:48:20.440Z,57.82
2018-07-23T10:49:20.438Z,57.63
2018-07-23T10:50:20.434Z,63.12
2018-07-23T10:51:20.434Z,60.10
2018-07-23T10:52:20.447Z,60.00
2018-07-23T10:53:20.432Z,60.19
2018-07-23T10:54:20.438Z,61.46
2018-07-23T10:55:20.438Z,59.74
2018-07-23T10:56:20.431Z,61.72
2018-07-23T10:57:20.436Z,61.91
2018-07-23T10:58:20.441Z,56.54
2018-07-23T10:59:20.438Z,58.30
2018-07-23T11:00:20.446Z,61.00
2018-07-23T11:01:20.445Z,59.67
2018-07-23T11:02:20.442Z,57.03
2018-07-23T11:03:20.448Z,58.72
2018-07-23T11:04:20.501Z,56.47
2018-07-23T11:05:20.451Z,55.91
2018-07-23T11:06:20.448Z,57.09
2018-07-23T11:07:20.483Z,54.91
2018-07-23T11:08:20.454Z,58.55
2018-07-23T11:09:20.454Z,58.36
2018-07-23T11:10:20.460Z,58.16
2018-07-23T11:11:20.457Z,54.03
2018-07-23T11:12:20.460Z,59.04
2018-07-23T11:13:20.471Z,53.47
2018-07-23T11:14:20.467Z,53.47
2018-07-23T11:15:20.480Z,53.49
2018-07-23T11:16:20.480Z,56.22
2018-07-23T11:17:20.474Z,62.60
2018-07-23T11:18:20.480Z,60.25
2018-07-23T11:19:20.541Z,56.08
2018-07-23T11:20:20.486Z,54.32
2018-07-23T11:21:20.489Z,55.10
2018-07-23T11:22:20.492Z,52.49
2018-07-23T11:23:20.499Z,55.71
2018-07-23T11:24:20.498Z,54.83
2018-07-23T11:25:39.085Z,51.68
2018-07-23T11:26:20.524Z,52.56
2018-07-23T11:27:20.515Z,53.15
2018-07-23T11:28:20.509Z,56.70
2018-07-23T11:29:20.515Z,52.78
2018-07-23T11:30:20.541Z,58.09
2018-07-23T11:31:20.531Z,52.54
2018-07-23T11:32:20.535Z,50.68
2018-07-23T11:33:20.550Z,50.78
2018-07-23T11:34:20.541Z,51.78
2018-07-23T11:35:20.545Z,50.93
2018-07-23T11:36:20.553Z,45.83
2018-07-23T11:37:20.560Z,46.23
2018-07-23T11:38:20.567Z,45.76
2018-07-23T11:39:20.571Z,48.68
2018-07-23T11:40:20.573Z,53.86
2018-07-23T11:41:20.576Z,47.89
2018-07-23T11:42:20.590Z,50.71
2018-07-23T11:43:20.595Z,48.36
2018-07-23T11:44:20.596Z,49.65
2018-07-23T11:45:20.618Z,51.61
2018-07-23T11:46:24.983Z,50.44
2018-07-23T11:47:20.617Z,50.15
2018-07-23T11:48:20.617Z,48.41
2018-07-23T11:49:20.624Z,53.43
2018-07-23T11:50:20.630Z,54.73
2018-07-23T11:51:20.644Z,52.89
2018-07-23T11:52:20.643Z,48.96
2018-07-23T11:53:20.708Z,45.41
2018-07-23T11:54:20.663Z,48.35
2018-07-23T11:55:20.667Z,51.17
2018-07-23T11:56:20.674Z,47.60
2018-07-23T11:57:20.681Z,51.73
2018-07-23T11:58:20.687Z,51.00
2018-07-23T11:59:20.693Z,54.59
2018-07-23T12:00:20.699Z,53.68
2018-07-23T12:01:20.706Z,54.27
2018-07-23T12:02:20.709Z,58.37
2018-07-23T12:03:20.712Z,54.36
2018-07-23T12:04:20.755Z,55.63
2018-07-23T12:05:20.727Z,54.85
2018-07-23T12:06:20.834Z,56.51
2018-07-23T12:07:20.725Z,56.02
2018-07-23T12:08:20.725Z,58.13
2018-07-23T12:09:20.722Z,54.52
2018-07-23T12:10:20.726Z,54.15
2018-07-23T12:11:20.736Z,56.23
2018-07-23T12:12:20.726Z,56.77
2018-07-23T12:13:20.732Z,55.70
2018-07-23T12:14:20.740Z,54.72
2018-07-23T12:15:20.742Z,53.47
2018-07-23T12:16:20.745Z,55.95
2018-07-23T12:17:20.793Z,51.00
2018-07-23T12:18:20.750Z,54.94
2018-07-23T12:19:20.754Z,56.58
2018-07-23T12:20:20.760Z,53.67
2018-07-23T12:21:20.758Z,52.03
2018-07-23T12:22:20.763Z,52.00
2018-07-23T12:23:20.770Z,57.22
2018-07-23T12:24:20.773Z,57.25
2018-07-23T12:25:20.771Z,49.24
2018-07-23T12:26:20.783Z,50.61
2018-07-23T12:27:20.790Z,49.99
2018-07-23T12:28:20.784Z,49.58
2018-07-23T12:29:20.796Z,50.39
2018-07-23T12:30:20.805Z,53.77
2018-07-23T12:31:20.802Z,53.89
2018-07-23T12:32:20.815Z,53.28
2018-07-23T12:33:20.814Z,52.93
2018-07-23T12:34:20.815Z,52.39
2018-07-23T12:35:20.825Z,55.59
2018-07-23T12:36:20.831Z,59.67
2018-07-23T12:37:20.832Z,57.49
2018-07-23T12:38:20.838Z,58.63
2018-07-23T12:39:20.887Z,57.63
2018-07-23T12:40:20.838Z,56.71
2018-07-23T12:41:20.841Z,54.81
2018-07-23T12:42:20.840Z,53.17
2018-07-23T12:43:20.850Z,56.95
2018-07-23T12:44:20.844Z,53.64
2018-07-23T12:45:20.850Z,54.19
2018-07-23T12:46:20.858Z,51.83
2018-07-23T12:47:20.864Z,51.34
2018-07-23T12:48:20.857Z,53.89
2018-07-23T12:49:20.867Z,50.68
2018-07-23T12:50:20.864Z,48.52
2018-07-23T12:51:20.867Z,55.02
2018-07-23T12:52:20.874Z,50.63
2018-07-23T12:53:20.880Z,49.68
2018-07-23T12:54:20.883Z,47.22
2018-07-23T12:55:20.889Z,48.72
2018-07-23T12:56:20.891Z,45.89
2018-07-23T12:57:20.902Z,49.04
2018-07-23T12:58:20.898Z,45.18
2018-07-23T12:59:20.909Z,46.26
2018-07-23T13:00:20.915Z,45.97
2018-07-23T13:01:20.918Z,45.26
2018-07-23T13:02:20.921Z,47.13
2018-07-23T13:03:20.931Z,44.45
2018-07-23T13:04:20.940Z,48.08
2018-07-23T13:05:20.937Z,45.83
2018-07-23T13:06:20.964Z,50.34
2018-07-23T13:07:20.966Z,47.93
2018-07-23T13:08:20.960Z,45.55
2018-07-23T13:09:20.970Z,44.40
2018-07-23T13:10:20.969Z,46.06
2018-07-23T13:11:20.975Z,42.92
2018-07-23T13:12:20.985Z,43.98
2018-07-23T13:13:20.989Z,47.52
2018-07-23T13:14:21.010Z,47.67
2018-07-23T13:15:21.004Z,50.24
2018-07-23T13:16:21.010Z,50.22
2018-07-23T13:17:21.017Z,54.86
2018-07-23T13:18:21.052Z,52.27
2018-07-23T13:19:21.023Z,48.07
2018-07-23T13:20:21.072Z,50.54
2018-07-23T13:21:21.033Z,53.82
2018-07-23T13:22:21.036Z,52.76
2018-07-23T13:23:21.045Z,46.83
2018-07-23T13:24:21.041Z,44.30
2018-07-23T13:25:21.064Z,49.13
2018-07-23T13:26:21.064Z,46.97
2018-07-23T13:27:21.054Z,45.81
2018-07-23T13:28:21.065Z,44.54
2018-07-23T13:29:21.069Z,47.29
2018-07-23T13:30:21.072Z,43.83
2018-07-23T13:31:21.075Z,43.24
2018-07-23T13:32:21.118Z,46.38
2018-07-23T13:33:21.091Z,44.20
2018-07-23T13:34:21.102Z,47.56
2018-07-23T13:35:21.104Z,47.25
2018-07-23T13:36:21.107Z,44.32
2018-07-23T13:37:21.117Z,44.73
2018-07-23T13:38:21.140Z,42.10
2018-07-23T13:39:21.120Z,41.90
2018-07-23T13:40:21.124Z,41.14
2018-07-23T13:41:21.135Z,41.83
2018-07-23T13:42:21.139Z,44.09
2018-07-23T13:43:21.142Z,44.56
2018-07-23T13:44:21.146Z,42.96
2018-07-23T13:45:21.152Z,43.16
2018-07-23T13:46:21.186Z,44.36
2018-07-23T13:47:21.161Z,45.15
2018-07-23T13:48:21.168Z,42.49
2018-07-23T13:49:21.171Z,45.74
2018-07-23T13:50:21.181Z,43.79
2018-07-23T13:51:21.190Z,45.47
2018-07-23T13:52:21.187Z,43.32
2018-07-23T13:53:21.200Z,43.05
2018-07-23T13:54:21.231Z,40.48
2018-07-23T13:55:21.209Z,42.65
2018-07-23T13:56:21.216Z,43.54
2018-07-23T13:57:21.222Z,40.05
2018-07-23T13:58:21.228Z,43.10
2018-07-23T13:59:21.233Z,42.12
2018-07-23T14:00:21.233Z,39.34
2018-07-23T14:01:21.279Z,38.34
2018-07-23T14:02:21.251Z,41.19
2018-07-23T14:03:21.257Z,43.01
2018-07-23T14:04:21.257Z,44.19
2018-07-23T14:05:21.268Z,38.49
2018-07-23T14:06:21.278Z,39.39
2018-07-23T14:07:21.273Z,38.48
2018-07-23T14:08:21.279Z,39.48
2018-07-23T14:09:21.289Z,40.78
2018-07-23T14:10:21.293Z,40.48
2018-07-23T14:11:21.305Z,39.68
2018-07-23T14:12:21.309Z,39.07
2018-07-23T14:13:21.315Z,36.92
2018-07-23T14:14:21.319Z,37.61
2018-07-23T14:15:21.325Z,39.87
2018-07-23T14:16:21.337Z,40.05
2018-07-23T14:17:21.337Z,40.00
2018-07-23T14:18:21.341Z,39.81
2018-07-23T14:19:21.351Z,36.82
2018-07-23T14:20:21.357Z,37.61
2018-07-23T14:21:21.363Z,39.97
2018-07-23T14:22:21.409Z,38.42
2018-07-23T14:23:21.367Z,36.72
2018-07-23T14:24:21.379Z,42.44
2018-07-23T14:25:21.387Z,37.71
2018-07-23T14:26:21.382Z,39.87
2018-07-23T14:27:21.392Z,41.94
2018-07-23T14:28:21.395Z,39.11
2018-07-23T14:29:21.409Z,41.16
2018-07-23T14:30:21.494Z,38.20
2018-07-23T14:31:21.412Z,38.40
2018-07-23T14:32:21.414Z,43.24
2018-07-23T14:33:21.421Z,40.37
2018-07-23T14:34:21.424Z,37.97
2018-07-23T14:35:21.431Z,39.86
2018-07-23T14:36:21.440Z,36.55
2018-07-23T14:37:21.443Z,38.29
2018-07-23T14:38:21.450Z,40.13
2018-07-23T14:39:21.456Z,43.12
2018-07-23T14:40:21.459Z,39.98
2018-07-23T14:41:21.459Z,40.66
2018-07-23T14:42:21.462Z,43.06
2018-07-23T14:43:21.473Z,40.45
2018-07-23T14:44:21.476Z,38.38
2018-07-23T14:45:21.473Z,38.26
2018-07-23T14:46:21.486Z,38.23
2018-07-23T14:47:21.492Z,40.31
2018-07-23T14:48:21.492Z,40.82
2018-07-23T14:49:21.498Z,40.74
2018-07-23T14:50:21.500Z,39.39
2018-07-23T14:51:21.505Z,38.60
2018-07-23T14:52:21.505Z,38.12
2018-07-23T14:53:21.505Z,38.51
2018-07-23T14:54:21.518Z,41.08
2018-07-23T14:55:21.518Z,41.16
2018-07-23T14:56:21.527Z,39.03
2018-07-23T14:57:21.528Z,40.43
2018-07-23T14:58:21.540Z,37.35
2018-07-23T14:59:21.540Z,40.11
2018-07-23T15:00:21.544Z,39.62
2018-07-23T15:01:21.547Z,40.92
2018-07-23T15:02:21.550Z,35.48
2018-07-23T15:03:21.560Z,38.43
2018-07-23T15:04:21.560Z,37.74
2018-07-23T15:05:21.557Z,35.43
2018-07-23T15:06:21.566Z,36.38
2018-07-23T15:07:21.577Z,37.26
2018-07-23T15:08:21.579Z,40.13
2018-07-23T15:09:21.580Z,39.26
2018-07-23T15:10:21.583Z,39.97
2018-07-23T15:11:21.592Z,43.62
2018-07-23T15:12:21.592Z,37.30
2018-07-23T15:13:21.605Z,38.89
2018-07-23T15:14:21.605Z,36.11
2018-07-23T15:15:21.607Z,36.02
2018-07-23T15:16:21.609Z,38.40
2018-07-23T15:17:21.626Z,39.48
2018-07-23T15:18:21.619Z,37.71
2018-07-23T15:19:21.627Z,40.35
2018-07-23T15:20:21.631Z,40.05
2018-07-23T15:21:21.631Z,39.76
2018-07-23T15:22:21.641Z,38.56
2018-07-23T15:23:21.637Z,43.48
2018-07-23T15:24:21.660Z,41.22
2018-07-23T15:25:21.650Z,37.07
2018-07-23T15:26:21.650Z,40.92
2018-07-23T15:27:21.689Z,41.88
2018-07-23T15:28:21.656Z,40.37
2018-07-23T15:29:21.667Z,42.33
2018-07-23T15:30:21.663Z,41.94
2018-07-23T15:31:21.684Z,42.14
2018-07-23T15:32:21.677Z,41.33
2018-07-23T15:33:21.691Z,40.43
2018-07-23T15:34:21.686Z,43.29
2018-07-23T15:35:21.693Z,42.11
2018-07-23T15:36:21.690Z,43.39
2018-07-23T15:37:21.689Z,44.65
2018-07-23T15:38:21.696Z,44.26
2018-07-23T15:39:21.696Z,42.39
2018-07-23T15:40:21.702Z,42.00
2018-07-23T15:41:21.702Z,41.88
2018-07-23T15:42:21.712Z,41.08
2018-07-23T15:43:21.706Z,43.33
2018-07-23T15:44:21.836Z,39.90
2018-07-23T15:45:21.774Z,40.68
2018-07-23T15:46:21.826Z,42.43
2018-07-23T15:47:21.723Z,42.82
2018-07-23T15:48:21.722Z,41.52
2018-07-23T15:49:21.725Z,42.78
2018-07-23T15:50:21.726Z,45.52
2018-07-23T15:51:21.728Z,48.26
2018-07-23T15:52:21.732Z,45.62
2018-07-23T15:53:21.732Z,44.34
2018-07-23T15:54:21.740Z,44.76
2018-07-23T15:55:21.744Z,45.44
2018-07-23T15:56:21.750Z,45.34
2018-07-23T15:57:21.747Z,44.85
2018-07-23T15:58:21.744Z,45.15
2018-07-23T15:59:21.766Z,44.17
2018-07-23T16:00:21.750Z,45.83
2018-07-23T16:01:21.748Z,44.66
2018-07-23T16:02:21.751Z,42.19
2018-07-23T16:03:21.757Z,42.29
2018-07-23T16:04:21.757Z,44.32
2018-07-23T16:05:21.785Z,45.69
2018-07-23T16:06:21.760Z,46.18
2018-07-23T16:07:21.760Z,47.92
2018-07-23T16:08:21.761Z,46.86
2018-07-23T16:09:21.763Z,47.06
2018-07-23T16:10:21.760Z,45.79
2018-07-23T16:11:21.770Z,47.85
2018-07-23T16:12:21.769Z,46.06
2018-07-23T16:13:21.811Z,48.70
2018-07-23T16:14:21.763Z,48.31
2018-07-23T16:15:21.774Z,50.66
2018-07-23T16:16:21.786Z,50.95
2018-07-23T16:17:21.766Z,46.04
2018-07-23T16:18:21.766Z,46.53
2018-07-23T16:19:21.767Z,47.80
2018-07-23T16:20:21.767Z,49.16
2018-07-23T16:21:21.766Z,46.82
2018-07-23T16:22:21.773Z,45.62
2018-07-23T16:23:21.764Z,46.31
2018-07-23T16:24:21.757Z,48.44
2018-07-23T16:25:21.761Z,49.12
2018-07-23T16:26:21.757Z,47.75
2018-07-23T16:27:21.753Z,49.29
2018-07-23T16:28:21.750Z,50.39
2018-07-23T16:29:21.750Z,50.16
2018-07-23T16:30:21.751Z,49.00
2018-07-23T16:31:21.751Z,50.82
2018-07-23T16:32:21.747Z,50.73
2018-07-23T16:33:21.749Z,52.19
2018-07-23T16:34:21.744Z,50.99
2018-07-23T16:35:21.740Z,51.58
2018-07-23T16:36:21.732Z,50.19
2018-07-23T16:37:21.737Z,50.87
2018-07-23T16:38:21.728Z,52.34
2018-07-23T16:39:21.728Z,50.46
2018-07-23T16:40:21.718Z,52.50
2018-07-23T16:41:21.714Z,53.58
2018-07-23T16:42:21.718Z,52.60
2018-07-23T16:43:21.718Z,53.28